createdAt,value
2023-05-09T00:03:12.736Z,47.22
2023-05-09T00:08:15.509Z,47.26
2023-05-09T00:13:18.836Z,48.13
2023-05-09T00:18:22.123Z,48.05
2023-05-09T00:23:24.706Z,48.53
2023-05-09T00:28:27.502Z,48.44
2023-05-09T00:33:30.386Z,48.57
2023-05-09T00:38:32.962Z,48.89
2023-05-09T00:43:35.716Z,49.31
2023-05-09T00:48:38.589Z,48.64
2023-05-09T00:53:41.223Z,49.50
2023-05-09T00:58:44.024Z,50.66
2023-05-09T01:03:47.313Z,50.06
2023-05-09T01:09:21.818Z,50.31
2023-05-09T01:14:44.039Z,50.95
2023-05-09T01:20:02.576Z,50.92
2023-05-09T01:25:21.375Z,49.57
2023-05-09T01:30:25.976Z,50.91
2023-05-09T01:35:32.115Z,50.66
2023-05-09T01:40:36.907Z,50.73
2023-05-09T01:45:41.551Z,50.18
2023-05-09T01:50:45.802Z,51.51
2023-05-09T01:55:51.292Z,51.50
2023-05-09T02:00:57.496Z,52.28
2023-05-09T02:06:03.329Z,52.45
2023-05-09T02:11:07.269Z,52.74
2023-05-09T02:16:10.340Z,53.26
2023-05-09T02:21:13.068Z,53.28
2023-05-09T02:26:15.889Z,52.79
2023-05-09T02:31:20.744Z,53.63
2023-05-09T02:36:24.426Z,52.94
2023-05-09T02:41:28.942Z,52.84
2023-05-09T02:46:32.004Z,52.73
2023-05-09T02:51:34.680Z,53.23
2023-05-09T02:56:37.281Z,54.43
2023-05-09T03:01:39.871Z,52.54
2023-05-09T03:06:42.482Z,53.24
2023-05-09T03:11:45.483Z,53.88
2023-05-09T03:16:48.213Z,54.55
2023-05-09T03:21:50.881Z,54.76
2023-05-09T03:26:53.652Z,57.35
2023-05-09T03:31:56.508Z,55.88
2023-05-09T03:37:00.181Z,55.72
2023-05-09T03:42:02.939Z,55.09
2023-05-09T03:47:05.712Z,55.55
2023-05-09T03:52:08.446Z,55.26
2023-05-09T03:57:10.988Z,55.22
2023-05-09T04:02:13.662Z,55.71
2023-05-09T04:07:16.588Z,55.52
2023-05-09T04:12:19.391Z,55.92
2023-05-09T04:17:21.970Z,54.59
2023-05-09T04:22:24.574Z,56.08
2023-05-09T04:27:28.155Z,57.65
2023-05-09T04:32:30.970Z,58.74
2023-05-09T04:37:33.772Z,58.36
2023-05-09T04:42:37.620Z,58.35
2023-05-09T04:47:40.241Z,58.55
2023-05-09T04:52:43.171Z,62.47
2023-05-09T04:57:45.766Z,68.07
2023-05-09T05:02:48.394Z,61.98
2023-05-09T05:07:51.013Z,54.32
2023-05-09T05:12:53.901Z,52.63
2023-05-09T05:17:56.529Z,49.57
2023-05-09T05:22:59.362Z,41.67
2023-05-09T05:28:02.158Z,34.59
2023-05-09T05:33:04.939Z,29.79
2023-05-09T05:38:07.550Z,26.93
2023-05-09T05:43:10.256Z,24.95
2023-05-09T05:48:12.919Z,23.34
2023-05-09T05:53:15.516Z,22.20
2023-05-09T05:58:18.470Z,21.89
2023-05-09T06:03:22.400Z,21.63
2023-05-09T06:08:25.073Z,20.61
2023-05-09T06:13:28.010Z,19.86
2023-05-09T06:18:30.904Z,19.84
2023-05-09T06:23:33.666Z,19.33
2023-05-09T06:28:36.386Z,18.93
2023-05-09T06:33:39.345Z,18.71
2023-05-09T06:38:43.714Z,18.72
2023-05-09T06:43:48.046Z,18.52
2023-05-09T06:48:50.783Z,18.41
2023-05-09T06:53:53.408Z,18.15
2023-05-09T06:58:55.996Z,18.29
2023-05-09T07:03:59.715Z,18.22
2023-05-09T07:09:04.006Z,17.22
2023-05-09T07:14:06.626Z,17.27
2023-05-09T07:19:09.145Z,16.85
2023-05-09T07:24:11.884Z,16.47
2023-05-09T07:29:14.422Z,16.68
2023-05-09T07:34:17.854Z,16.42
2023-05-09T07:39:20.600Z,16.76
2023-05-09T07:44:23.902Z,16.90
2023-05-09T07:49:26.837Z,17.34
2023-05-09T07:54:29.392Z,17.98
2023-05-09T07:59:31.996Z,17.82
2023-05-09T08:04:38.896Z,18.55
2023-05-09T08:09:41.662Z,19.20
2023-05-09T08:14:44.249Z,20.07
2023-05-09T08:19:46.876Z,20.40
2023-05-09T08:24:49.412Z,20.71
2023-05-09T08:29:51.958Z,21.96
2023-05-09T08:34:54.920Z,22.43
2023-05-09T08:39:57.452Z,22.91
2023-05-09T08:45:01.952Z,23.42
2023-05-09T08:50:05.701Z,23.93
2023-05-09T08:55:08.532Z,23.65
2023-05-09T09:00:13.952Z,23.68
2023-05-09T09:05:39.573Z,23.83
2023-05-09T09:10:43.281Z,24.27
2023-05-09T09:15:47.141Z,23.94
2023-05-09T09:21:18.970Z,23.61
2023-05-09T09:26:22.225Z,23.83
2023-05-09T09:31:27.396Z,23.75
2023-05-09T09:36:35.094Z,23.12
2023-05-09T09:41:39.007Z,22.63
2023-05-09T09:46:50.276Z,22.51
2023-05-09T09:51:58.194Z,22.87
2023-05-09T09:57:01.883Z,23.32
2023-05-09T10:02:08.824Z,23.12
2023-05-09T10:07:14.619Z,23.12
2023-05-09T10:12:19.972Z,23.26
2023-05-09T10:17:23.375Z,23.49
2023-05-09T10:22:26.342Z,23.94
2023-05-09T10:27:32.129Z,24.05
2023-05-09T10:32:49.264Z,23.72
2023-05-09T10:37:55.959Z,23.97
2023-05-09T10:42:58.633Z,24.19
2023-05-09T10:48:04.005Z,24.18
2023-05-09T10:53:26.611Z,24.16
2023-05-09T10:58:31.884Z,24.04
2023-05-09T11:03:54.451Z,24.02
2023-05-09T11:08:56.992Z,23.81
2023-05-09T11:13:59.532Z,23.92
2023-05-09T11:19:02.036Z,24.13
2023-05-09T11:24:17.004Z,24.25
2023-05-09T11:29:19.615Z,24.42
2023-05-09T11:34:22.451Z,24.66
2023-05-09T11:39:25.249Z,24.77
2023-05-09T11:44:28.229Z,24.93
2023-05-09T11:49:31.215Z,24.92
2023-05-09T11:54:36.124Z,24.66
2023-05-09T11:59:38.814Z,24.83
2023-05-09T12:04:41.502Z,25.16
2023-05-09T12:09:44.447Z,25.20
2023-05-09T12:14:48.602Z,24.90
2023-05-09T12:19:52.859Z,24.75
2023-05-09T12:24:55.748Z,24.76
2023-05-09T12:30:00.004Z,24.77
2023-05-09T12:35:04.392Z,25.10
2023-05-09T12:40:12.839Z,25.08
2023-05-09T12:45:15.929Z,25.21
2023-05-09T12:50:19.374Z,25.23
2023-05-09T12:55:23.228Z,25.37
2023-05-09T13:00:26.209Z,25.66
2023-05-09T13:05:28.823Z,25.37
2023-05-09T13:10:31.612Z,25.37
2023-05-09T13:15:34.221Z,25.83
2023-05-09T13:20:36.825Z,25.39
2023-05-09T13:25:39.371Z,25.07
2023-05-09T13:30:43.169Z,25.12
2023-05-09T13:35:47.176Z,25.30
2023-05-09T13:40:52.533Z,25.52
2023-05-09T13:45:55.169Z,25.24
2023-05-09T13:50:59.935Z,25.46
2023-05-09T13:56:02.594Z,25.42
2023-05-09T14:01:07.736Z,25.44
2023-05-09T14:06:12.448Z,25.31
2023-05-09T14:11:16.595Z,25.37
2023-05-09T14:16:20.866Z,25.39
2023-05-09T14:21:23.437Z,25.14
2023-05-09T14:26:26.708Z,25.24
2023-05-09T14:31:30.530Z,25.64
2023-05-09T14:36:33.213Z,25.53
2023-05-09T14:41:36.253Z,25.73
2023-05-09T14:46:38.871Z,25.76
2023-05-09T14:51:41.496Z,25.68
2023-05-09T14:56:44.571Z,25.65
2023-05-09T15:01:47.580Z,25.66
2023-05-09T15:06:50.322Z,25.61
2023-05-09T15:11:53.389Z,25.72
2023-05-09T15:16:59.045Z,25.61
2023-05-09T15:22:03.891Z,25.73
2023-05-09T15:27:06.505Z,25.89
2023-05-09T15:32:09.080Z,25.87
2023-05-09T15:37:11.630Z,26.03
2023-05-09T15:42:15.890Z,25.96
2023-05-09T15:47:18.452Z,26.02
2023-05-09T15:52:21.435Z,26.13
2023-05-09T15:57:24.840Z,26.20
2023-05-09T16:02:28.563Z,26.36
2023-05-09T16:07:32.698Z,26.39
2023-05-09T16:12:36.676Z,26.48
2023-05-09T16:17:39.229Z,26.69
2023-05-09T16:22:42.408Z,26.92
2023-05-09T16:27:45.169Z,26.80
2023-05-09T16:32:47.747Z,26.89
2023-05-09T16:37:50.709Z,27.01
2023-05-09T16:42:53.810Z,27.18
2023-05-09T16:47:58.026Z,27.24
2023-05-09T16:53:02.342Z,27.34
2023-05-09T16:58:04.879Z,27.41
2023-05-09T17:03:07.858Z,27.46
2023-05-09T17:08:13.020Z,27.53
2023-05-09T17:13:15.631Z,27.53
2023-05-09T17:18:33.326Z,27.57
2023-05-09T17:23:39.475Z,27.67
2023-05-09T17:28:42.179Z,27.76
2023-05-09T17:33:44.782Z,27.88
2023-05-09T17:38:47.326Z,27.94
2023-05-09T17:43:51.808Z,28.17
2023-05-09T17:48:54.621Z,28.06
2023-05-09T17:53:57.212Z,28.23
2023-05-09T17:59:01.607Z,28.68
2023-05-09T18:04:04.493Z,28.53
2023-05-09T18:09:07.103Z,28.81
2023-05-09T18:14:09.746Z,29.09
2023-05-09T18:19:12.689Z,29.16
2023-05-09T18:24:17.085Z,29.53
2023-05-09T18:29:20.013Z,30.02
2023-05-09T18:34:22.566Z,30.02
2023-05-09T18:39:25.747Z,30.33
2023-05-09T18:44:29.816Z,31.31
2023-05-09T18:49:32.568Z,31.35
2023-05-09T18:54:38.232Z,31.66
2023-05-09T18:59:41.353Z,31.54
2023-05-09T19:04:50.310Z,31.92
2023-05-09T19:09:52.909Z,31.74
2023-05-09T19:14:56.440Z,32.42
2023-05-09T19:19:59.277Z,32.08
2023-05-09T19:25:01.892Z,32.60
2023-05-09T19:30:05.533Z,33.14
2023-05-09T19:35:09.034Z,33.16
2023-05-09T19:40:12.810Z,33.32
2023-05-09T19:45:15.919Z,33.89
2023-05-09T19:50:18.784Z,33.91
2023-05-09T19:55:21.449Z,34.24
2023-05-09T20:00:24.046Z,34.65
2023-05-09T20:05:27.480Z,35.07
2023-05-09T20:10:30.753Z,34.87
2023-05-09T20:15:33.353Z,35.37
2023-05-09T20:20:35.917Z,35.55
2023-05-09T20:25:38.494Z,34.99
2023-05-09T20:30:41.100Z,35.37
2023-05-09T20:35:43.878Z,36.19
2023-05-09T20:40:47.110Z,36.00
2023-05-09T20:45:50.056Z,36.61
2023-05-09T20:50:52.635Z,35.82
2023-05-09T20:55:55.753Z,36.89
2023-05-09T21:00:58.565Z,36.70
2023-05-09T21:06:01.091Z,36.96
2023-05-09T21:11:03.625Z,38.29
2023-05-09T21:16:06.186Z,38.23
2023-05-09T21:21:08.878Z,37.22
2023-05-09T21:26:11.739Z,37.59
2023-05-09T21:31:14.516Z,38.15
2023-05-09T21:36:17.046Z,38.54
2023-05-09T21:41:21.781Z,38.54
2023-05-09T21:46:24.402Z,38.23
2023-05-09T21:51:28.327Z,39.49
2023-05-09T21:56:30.896Z,40.75
2023-05-09T22:01:33.415Z,40.59
2023-05-09T22:06:35.948Z,39.35
2023-05-09T22:11:38.448Z,40.54
2023-05-09T22:16:41.099Z,40.60
2023-05-09T22:21:44.489Z,40.91
2023-05-09T22:26:47.197Z,41.85
2023-05-09T22:31:49.810Z,41.42
2023-05-09T22:36:54.446Z,41.36
2023-05-09T22:41:56.971Z,41.46
2023-05-09T22:46:59.632Z,41.00
2023-05-09T22:52:02.958Z,41.60
2023-05-09T22:57:05.580Z,41.83
2023-05-09T23:02:08.107Z,42.39
2023-05-09T23:07:10.843Z,42.58
2023-05-09T23:12:13.364Z,42.48
2023-05-09T23:17:16.053Z,41.86
2023-05-09T23:22:18.999Z,41.68
2023-05-09T23:27:22.444Z,41.83
2023-05-09T23:32:25.396Z,42.14
2023-05-09T23:37:28.092Z,42.33
2023-05-09T23:42:30.794Z,42.93
2023-05-09T23:47:33.365Z,42.52
2023-05-09T23:52:36.046Z,43.60
2023-05-09T23:57:38.658Z,43.17
